East Jordan, Michigan
Current Conditions -  °F | °C
As of 10:35 PM on Monday 26 Jan 2015 (Local Time) from KCVX Reporting Station
Overcast Overcast  
Wind Chill: -13°   Ceiling: 7000
Heat Index: -7°   Visibility: 10mi
Dew Point: -11°   Wind: 8mph
Humidity: 75%   Direction: 110°ESE
Pressure: 30.04"   Gusts: NA
Location:  45.16°N, 85.12°W
Report Text: KCVX 270335Z AUTO 11007KT 10SM OVC070 M07/M11 A3004 RMK AO2 T10731110
Loading
Personal Weather Stations






























Interactive Weather Map New forecast layout! Learn more

10-Day Weather Forecast

Advertisements
Track Severe Weather on mobile